This is the latest recevied weather packets stored in our database for station/object K6CEG. If no packets are shown the sender has not sent any weather packets the latest 10 day(s).
| Time | Temp. | Humidity | Pressure | Rain* | Wind** | Luminosity | Snow |
|---|---|---|---|---|---|---|---|
| 1778352592 | 27.22° C | 49% | 1015.2 hPa | 0 mm | - | 765 W/m² | - |
| 1778352290 | 26.11° C | 50% | 1015.4 hPa | 0 mm | - | 779 W/m² | - |
| 1778351986 | 25.56° C | 52% | 1015.2 hPa | 0 mm | - | 769 W/m² | - |
| 1778351681 | 25° C | 53% | 1015.3 hPa | 0 mm | - | 774 W/m² | - |
| 1778351378 | 27.22° C | 49% | 1015.4 hPa | 0 mm | - | 767 W/m² | - |
| 1778351074 | 26.11° C | 50% | 1015.4 hPa | 0 mm | - | 791 W/m² | - |
| 1778350771 | 26.11° C | 51% | 1015.4 hPa | 0 mm | - | 802 W/m² | - |
| 1778350469 | 25.56° C | 52% | 1015.5 hPa | 0 mm | - | 817 W/m² | - |
| 1778350166 | 25° C | 53% | 1015.4 hPa | 0 mm | - | 829 W/m² | - |
| 1778349862 | 25° C | 54% | 1015.4 hPa | 0 mm | - | 815 W/m² | - |
| 1778349559 | 24.44° C | 54% | 1015.6 hPa | 0 mm | - | 829 W/m² | - |
| 1778349255 | 23.89° C | 56% | 1015.7 hPa | 0 mm | - | 846 W/m² | - |
| 1778348951 | 25° C | 53% | 1015.8 hPa | 0 mm | - | 813 W/m² | - |
| 1778348648 | 25° C | 54% | 1015.7 hPa | 0 mm | - | 829 W/m² | - |
| 1778348344 | 24.44° C | 55% | 1015.8 hPa | 0 mm | - | 805 W/m² | - |
| 1778348043 | 24.44° C | 56% | 1015.6 hPa | 0 mm | - | 797 W/m² | - |
| 1778347740 | 24.44° C | 56% | 1015.8 hPa | 0 mm | - | 785 W/m² | - |
| 1778347437 | 23.89° C | 57% | 1015.8 hPa | 0 mm | - | 801 W/m² | - |
| 1778347133 | 23.89° C | 58% | 1015.7 hPa | 0 mm | - | 812 W/m² | - |
| 1778346829 | 23.33° C | 59% | 1015.8 hPa | 0 mm | - | 790 W/m² | - |
| 1778346526 | 22.78° C | 60% | 1015.8 hPa | 0 mm | - | 754 W/m² | - |
| 1778346222 | 22.22° C | 60% | 1015.7 hPa | 0 mm | - | 704 W/m² | - |
| 1778345922 | 21.67° C | 63% | 1015.8 hPa | 0 mm | - | 677 W/m² | - |
| 1778345616 | 21.11° C | 64% | 1015.6 hPa | 0 mm | - | 673 W/m² | - |
| 1778345313 | 20° C | 66% | 1015.6 hPa | 0 mm | - | 639 W/m² | - |
* Rain latest hour (hover to see other rain measurements)
** Current wind speed in m/s (hover to see current wind gust speed)